sensor_id;sensor_type;location;lat;lon;timestamp;P1;durP1;ratioP1;P2;durP2;ratioP2
24090;SDS011;12272;52.426;17.100;2022-08-19T00:04:38;13.90;;;12.57;;
24090;SDS011;12272;52.426;17.100;2022-08-19T00:09:42;13.00;;;11.70;;
24090;SDS011;12272;52.426;17.100;2022-08-19T00:14:45;13.05;;;11.75;;
24090;SDS011;12272;52.426;17.100;2022-08-19T00:19:47;12.55;;;11.45;;
24090;SDS011;12272;52.426;17.100;2022-08-19T00:24:50;13.30;;;12.02;;
24090;SDS011;12272;52.426;17.100;2022-08-19T00:29:52;13.63;;;12.32;;
24090;SDS011;12272;52.426;17.100;2022-08-19T00:34:55;12.55;;;11.45;;
24090;SDS011;12272;52.426;17.100;2022-08-19T00:39:58;13.02;;;11.75;;
24090;SDS011;12272;52.426;17.100;2022-08-19T00:45:00;12.73;;;11.55;;
24090;SDS011;12272;52.426;17.100;2022-08-19T00:50:03;12.63;;;11.35;;
24090;SDS011;12272;52.426;17.100;2022-08-19T00:55:07;12.60;;;11.43;;
24090;SDS011;12272;52.426;17.100;2022-08-19T01:00:15;13.32;;;11.95;;
24090;SDS011;12272;52.426;17.100;2022-08-19T01:05:25;13.90;;;12.60;;
24090;SDS011;12272;52.426;17.100;2022-08-19T01:10:31;12.75;;;11.52;;
24090;SDS011;12272;52.426;17.100;2022-08-19T01:15:40;13.35;;;12.00;;
24090;SDS011;12272;52.426;17.100;2022-08-19T01:20:46;13.50;;;12.15;;
24090;SDS011;12272;52.426;17.100;2022-08-19T01:25:50;13.77;;;12.57;;
24090;SDS011;12272;52.426;17.100;2022-08-19T01:30:54;12.20;;;11.15;;
24090;SDS011;12272;52.426;17.100;2022-08-19T01:36:04;12.82;;;11.73;;
24090;SDS011;12272;52.426;17.100;2022-08-19T01:41:09;13.15;;;11.85;;
24090;SDS011;12272;52.426;17.100;2022-08-19T01:46:13;12.90;;;11.60;;
24090;SDS011;12272;52.426;17.100;2022-08-19T01:51:16;12.32;;;11.23;;
24090;SDS011;12272;52.426;17.100;2022-08-19T01:56:19;13.93;;;12.20;;
24090;SDS011;12272;52.426;17.100;2022-08-19T02:01:21;12.38;;;11.27;;
24090;SDS011;12272;52.426;17.100;2022-08-19T02:06:28;12.80;;;11.60;;
24090;SDS011;12272;52.426;17.100;2022-08-19T02:11:31;12.65;;;11.50;;
24090;SDS011;12272;52.426;17.100;2022-08-19T02:16:36;11.05;;;10.05;;
24090;SDS011;12272;52.426;17.100;2022-08-19T02:21:38;13.38;;;11.98;;
24090;SDS011;12272;52.426;17.100;2022-08-19T02:26:41;12.00;;;10.90;;
24090;SDS011;12272;52.426;17.100;2022-08-19T02:31:44;12.18;;;11.07;;
24090;SDS011;12272;52.426;17.100;2022-08-19T02:36:47;12.82;;;11.63;;
24090;SDS011;12272;52.426;17.100;2022-08-19T02:41:52;11.88;;;10.77;;
24090;SDS011;12272;52.426;17.100;2022-08-19T02:46:55;12.15;;;10.95;;
24090;SDS011;12272;52.426;17.100;2022-08-19T02:51:57;12.32;;;11.23;;
24090;SDS011;12272;52.426;17.100;2022-08-19T02:57:01;12.93;;;11.75;;
24090;SDS011;12272;52.426;17.100;2022-08-19T03:02:04;12.45;;;11.25;;
24090;SDS011;12272;52.426;17.100;2022-08-19T03:07:06;13.50;;;12.30;;
24090;SDS011;12272;52.426;17.100;2022-08-19T03:12:12;12.43;;;10.80;;
24090;SDS011;12272;52.426;17.100;2022-08-19T03:17:14;12.68;;;11.45;;
24090;SDS011;12272;52.426;17.100;2022-08-19T03:22:17;11.60;;;10.50;;
24090;SDS011;12272;52.426;17.100;2022-08-19T03:27:20;11.73;;;10.68;;
24090;SDS011;12272;52.426;17.100;2022-08-19T03:32:22;12.18;;;10.98;;
24090;SDS011;12272;52.426;17.100;2022-08-19T03:37:34;11.55;;;10.55;;
24090;SDS011;12272;52.426;17.100;2022-08-19T03:42:36;11.82;;;10.73;;
24090;SDS011;12272;52.426;17.100;2022-08-19T03:47:50;13.25;;;12.05;;
24090;SDS011;12272;52.426;17.100;2022-08-19T03:52:52;13.90;;;11.18;;
24090;SDS011;12272;52.426;17.100;2022-08-19T03:57:55;11.38;;;10.38;;
24090;SDS011;12272;52.426;17.100;2022-08-19T04:03:00;12.02;;;10.88;;
24090;SDS011;12272;52.426;17.100;2022-08-19T04:08:03;11.93;;;10.77;;
24090;SDS011;12272;52.426;17.100;2022-08-19T04:13:13;14.20;;;12.63;;
24090;SDS011;12272;52.426;17.100;2022-08-19T04:18:17;14.25;;;12.90;;
24090;SDS011;12272;52.426;17.100;2022-08-19T04:23:19;14.20;;;12.45;;
24090;SDS011;12272;52.426;17.100;2022-08-19T04:28:22;16.75;;;11.88;;
24090;SDS011;12272;52.426;17.100;2022-08-19T04:33:25;14.82;;;12.75;;
24090;SDS011;12272;52.426;17.100;2022-08-19T04:38:30;14.05;;;12.63;;
24090;SDS011;12272;52.426;17.100;2022-08-19T04:43:33;12.50;;;11.30;;
24090;SDS011;12272;52.426;17.100;2022-08-19T04:48:37;14.30;;;12.45;;
24090;SDS011;12272;52.426;17.100;2022-08-19T04:53:50;15.15;;;12.63;;
24090;SDS011;12272;52.426;17.100;2022-08-19T04:58:54;13.82;;;12.38;;
24090;SDS011;12272;52.426;17.100;2022-08-19T05:03:58;14.18;;;12.75;;
24090;SDS011;12272;52.426;17.100;2022-08-19T05:09:03;12.68;;;11.50;;
24090;SDS011;12272;52.426;17.100;2022-08-19T05:14:06;13.15;;;11.95;;
24090;SDS011;12272;52.426;17.100;2022-08-19T05:19:10;13.90;;;12.55;;
24090;SDS011;12272;52.426;17.100;2022-08-19T05:24:34;13.35;;;12.05;;
24090;SDS011;12272;52.426;17.100;2022-08-19T05:29:57;13.98;;;12.43;;
24090;SDS011;12272;52.426;17.100;2022-08-19T05:34:59;14.88;;;11.88;;
24090;SDS011;12272;52.426;17.100;2022-08-19T05:40:03;15.05;;;11.95;;
24090;SDS011;12272;52.426;17.100;2022-08-19T05:45:06;13.55;;;12.23;;
24090;SDS011;12272;52.426;17.100;2022-08-19T05:50:09;13.48;;;12.07;;
24090;SDS011;12272;52.426;17.100;2022-08-19T05:55:12;12.80;;;11.60;;
24090;SDS011;12272;52.426;17.100;2022-08-19T06:00:15;12.52;;;11.43;;
24090;SDS011;12272;52.426;17.100;2022-08-19T06:05:23;13.15;;;11.88;;
24090;SDS011;12272;52.426;17.100;2022-08-19T06:10:27;13.98;;;11.68;;
24090;SDS011;12272;52.426;17.100;2022-08-19T06:15:29;14.07;;;12.57;;
24090;SDS011;12272;52.426;17.100;2022-08-19T06:20:32;15.98;;;12.10;;
24090;SDS011;12272;52.426;17.100;2022-08-19T06:25:54;15.90;;;13.95;;
24090;SDS011;12272;52.426;17.100;2022-08-19T06:30:57;19.05;;;13.80;;
24090;SDS011;12272;52.426;17.100;2022-08-19T06:35:59;16.88;;;12.98;;
24090;SDS011;12272;52.426;17.100;2022-08-19T06:41:03;13.70;;;11.95;;
24090;SDS011;12272;52.426;17.100;2022-08-19T06:46:09;15.20;;;13.35;;
24090;SDS011;12272;52.426;17.100;2022-08-19T06:51:16;14.48;;;13.02;;
24090;SDS011;12272;52.426;17.100;2022-08-19T06:56:23;13.50;;;12.18;;
24090;SDS011;12272;52.426;17.100;2022-08-19T07:01:42;17.10;;;12.75;;
24090;SDS011;12272;52.426;17.100;2022-08-19T07:06:47;13.20;;;11.98;;
24090;SDS011;12272;52.426;17.100;2022-08-19T07:11:56;14.48;;;12.85;;
24090;SDS011;12272;52.426;17.100;2022-08-19T07:16:58;18.80;;;13.48;;
24090;SDS011;12272;52.426;17.100;2022-08-19T07:22:02;20.65;;;14.02;;
24090;SDS011;12272;52.426;17.100;2022-08-19T07:27:06;14.60;;;13.10;;
24090;SDS011;12272;52.426;17.100;2022-08-19T07:32:15;14.18;;;12.85;;
24090;SDS011;12272;52.426;17.100;2022-08-19T07:37:18;16.83;;;13.25;;
24090;SDS011;12272;52.426;17.100;2022-08-19T07:42:20;17.92;;;14.15;;
24090;SDS011;12272;52.426;17.100;2022-08-19T07:47:23;16.40;;;13.90;;
24090;SDS011;12272;52.426;17.100;2022-08-19T07:52:45;17.63;;;13.93;;
24090;SDS011;12272;52.426;17.100;2022-08-19T07:57:50;17.17;;;12.95;;
24090;SDS011;12272;52.426;17.100;2022-08-19T08:02:54;19.60;;;13.23;;
24090;SDS011;12272;52.426;17.100;2022-08-19T08:07:57;14.80;;;13.10;;
24090;SDS011;12272;52.426;17.100;2022-08-19T08:13:18;18.55;;;14.35;;
24090;SDS011;12272;52.426;17.100;2022-08-19T08:18:20;14.52;;;13.00;;
24090;SDS011;12272;52.426;17.100;2022-08-19T08:23:28;17.52;;;13.25;;
24090;SDS011;12272;52.426;17.100;2022-08-19T08:28:31;16.73;;;11.57;;
24090;SDS011;12272;52.426;17.100;2022-08-19T08:33:34;15.32;;;12.57;;
24090;SDS011;12272;52.426;17.100;2022-08-19T08:38:37;14.32;;;12.75;;
24090;SDS011;12272;52.426;17.100;2022-08-19T08:43:44;14.52;;;13.13;;
24090;SDS011;12272;52.426;17.100;2022-08-19T08:48:51;14.77;;;12.63;;
24090;SDS011;12272;52.426;17.100;2022-08-19T08:54:01;40.47;;;15.43;;
24090;SDS011;12272;52.426;17.100;2022-08-19T08:59:21;14.93;;;13.32;;
24090;SDS011;12272;52.426;17.100;2022-08-19T09:04:35;18.80;;;14.25;;
24090;SDS011;12272;52.426;17.100;2022-08-19T09:09:43;13.32;;;12.05;;
24090;SDS011;12272;52.426;17.100;2022-08-19T09:25:12;18.70;;;16.80;;
24090;SDS011;12272;52.426;17.100;2022-08-19T09:30:18;17.45;;;15.38;;
24090;SDS011;12272;52.426;17.100;2022-08-19T09:35:24;20.40;;;15.88;;
24090;SDS011;12272;52.426;17.100;2022-08-19T09:40:29;23.50;;;16.83;;
24090;SDS011;12272;52.426;17.100;2022-08-19T09:45:39;20.73;;;15.23;;
24090;SDS011;12272;52.426;17.100;2022-08-19T09:50:42;20.50;;;15.65;;
24090;SDS011;12272;52.426;17.100;2022-08-19T09:55:54;24.90;;;14.77;;
24090;SDS011;12272;52.426;17.100;2022-08-19T10:00:57;20.50;;;15.43;;
24090;SDS011;12272;52.426;17.100;2022-08-19T10:06:02;19.50;;;15.52;;
24090;SDS011;12272;52.426;17.100;2022-08-19T10:11:16;49.63;;;17.10;;
24090;SDS011;12272;52.426;17.100;2022-08-19T10:16:37;33.20;;;16.65;;
24090;SDS011;12272;52.426;17.100;2022-08-19T10:21:41;20.58;;;14.35;;
24090;SDS011;12272;52.426;17.100;2022-08-19T10:26:44;22.33;;;12.60;;
24090;SDS011;12272;52.426;17.100;2022-08-19T10:31:57;32.92;;;14.20;;
24090;SDS011;12272;52.426;17.100;2022-08-19T10:37:03;29.13;;;14.90;;
24090;SDS011;12272;52.426;17.100;2022-08-19T10:42:11;23.58;;;13.13;;
24090;SDS011;12272;52.426;17.100;2022-08-19T10:47:15;22.88;;;13.35;;
24090;SDS011;12272;52.426;17.100;2022-08-19T10:52:26;19.30;;;12.45;;
24090;SDS011;12272;52.426;17.100;2022-08-19T10:57:39;21.33;;;13.68;;
24090;SDS011;12272;52.426;17.100;2022-08-19T11:03:03;20.98;;;13.05;;
24090;SDS011;12272;52.426;17.100;2022-08-19T11:08:07;16.70;;;11.98;;
24090;SDS011;12272;52.426;17.100;2022-08-19T11:13:24;16.25;;;11.55;;
24090;SDS011;12272;52.426;17.100;2022-08-19T11:18:27;20.35;;;11.50;;
24090;SDS011;12272;52.426;17.100;2022-08-19T11:23:29;16.35;;;12.27;;
24090;SDS011;12272;52.426;17.100;2022-08-19T11:28:32;15.57;;;12.13;;
24090;SDS011;12272;52.426;17.100;2022-08-19T11:33:34;15.77;;;11.45;;
24090;SDS011;12272;52.426;17.100;2022-08-19T11:38:38;12.57;;;11.27;;
24090;SDS011;12272;52.426;17.100;2022-08-19T11:43:41;18.17;;;12.00;;
24090;SDS011;12272;52.426;17.100;2022-08-19T11:48:45;22.65;;;10.70;;
24090;SDS011;12272;52.426;17.100;2022-08-19T11:53:48;14.35;;;10.52;;
24090;SDS011;12272;52.426;17.100;2022-08-19T11:58:52;14.80;;;11.27;;
24090;SDS011;12272;52.426;17.100;2022-08-19T12:03:55;20.73;;;9.93;;
24090;SDS011;12272;52.426;17.100;2022-08-19T12:09:03;16.90;;;10.88;;
24090;SDS011;12272;52.426;17.100;2022-08-19T12:14:09;12.65;;;10.38;;
24090;SDS011;12272;52.426;17.100;2022-08-19T12:19:15;13.48;;;9.85;;
24090;SDS011;12272;52.426;17.100;2022-08-19T12:24:23;14.77;;;11.32;;
24090;SDS011;12272;52.426;17.100;2022-08-19T12:29:26;12.27;;;9.93;;
24090;SDS011;12272;52.426;17.100;2022-08-19T12:34:31;10.45;;;8.90;;
24090;SDS011;12272;52.426;17.100;2022-08-19T12:39:35;14.93;;;9.35;;
24090;SDS011;12272;52.426;17.100;2022-08-19T12:44:41;12.38;;;10.82;;
24090;SDS011;12272;52.426;17.100;2022-08-19T12:49:45;14.30;;;11.18;;
24090;SDS011;12272;52.426;17.100;2022-08-19T12:54:56;10.63;;;9.27;;
24090;SDS011;12272;52.426;17.100;2022-08-19T12:59:59;12.68;;;10.35;;
24090;SDS011;12272;52.426;17.100;2022-08-19T13:05:07;12.45;;;10.98;;
24090;SDS011;12272;52.426;17.100;2022-08-19T13:10:13;16.75;;;10.13;;
24090;SDS011;12272;52.426;17.100;2022-08-19T13:15:19;17.73;;;9.52;;
24090;SDS011;12272;52.426;17.100;2022-08-19T13:20:25;10.70;;;9.35;;
24090;SDS011;12272;52.426;17.100;2022-08-19T13:25:27;18.42;;;12.32;;
24090;SDS011;12272;52.426;17.100;2022-08-19T13:30:30;20.58;;;12.30;;
24090;SDS011;12272;52.426;17.100;2022-08-19T13:35:54;20.63;;;12.00;;
24090;SDS011;12272;52.426;17.100;2022-08-19T13:41:03;13.02;;;11.30;;
24090;SDS011;12272;52.426;17.100;2022-08-19T13:46:14;13.65;;;11.85;;
24090;SDS011;12272;52.426;17.100;2022-08-19T14:07:49;16.80;;;13.65;;
24090;SDS011;12272;52.426;17.100;2022-08-19T14:12:53;20.75;;;13.73;;
24090;SDS011;12272;52.426;17.100;2022-08-19T14:17:57;18.52;;;15.88;;
24090;SDS011;12272;52.426;17.100;2022-08-19T14:23:00;24.63;;;14.30;;
24090;SDS011;12272;52.426;17.100;2022-08-19T14:28:03;21.98;;;14.60;;
24090;SDS011;12272;52.426;17.100;2022-08-19T14:33:06;17.73;;;14.25;;
24090;SDS011;12272;52.426;17.100;2022-08-19T14:38:14;17.52;;;14.48;;
24090;SDS011;12272;52.426;17.100;2022-08-19T14:43:28;16.20;;;14.50;;
24090;SDS011;12272;52.426;17.100;2022-08-19T14:48:31;16.75;;;15.00;;
24090;SDS011;12272;52.426;17.100;2022-08-19T14:53:34;19.33;;;15.48;;
24090;SDS011;12272;52.426;17.100;2022-08-19T14:58:37;18.80;;;15.35;;
24090;SDS011;12272;52.426;17.100;2022-08-19T15:03:42;16.15;;;14.45;;
24090;SDS011;12272;52.426;17.100;2022-08-19T15:08:44;18.10;;;15.07;;
24090;SDS011;12272;52.426;17.100;2022-08-19T15:13:47;23.02;;;16.23;;
24090;SDS011;12272;52.426;17.100;2022-08-19T15:18:51;20.55;;;16.00;;
24090;SDS011;12272;52.426;17.100;2022-08-19T15:23:58;17.65;;;14.80;;
24090;SDS011;12272;52.426;17.100;2022-08-19T15:29:02;18.08;;;15.13;;
24090;SDS011;12272;52.426;17.100;2022-08-19T15:34:06;18.33;;;15.07;;
24090;SDS011;12272;52.426;17.100;2022-08-19T15:39:09;16.90;;;15.13;;
24090;SDS011;12272;52.426;17.100;2022-08-19T15:44:12;15.73;;;14.18;;
24090;SDS011;12272;52.426;17.100;2022-08-19T15:49:17;17.08;;;14.32;;
24090;SDS011;12272;52.426;17.100;2022-08-19T15:54:21;16.10;;;14.57;;
24090;SDS011;12272;52.426;17.100;2022-08-19T15:59:23;16.23;;;14.52;;
24090;SDS011;12272;52.426;17.100;2022-08-19T16:04:48;14.95;;;13.52;;
24090;SDS011;12272;52.426;17.100;2022-08-19T16:10:11;15.63;;;14.13;;
24090;SDS011;12272;52.426;17.100;2022-08-19T16:15:28;15.07;;;13.52;;
24090;SDS011;12272;52.426;17.100;2022-08-19T16:20:31;16.55;;;14.95;;
24090;SDS011;12272;52.426;17.100;2022-08-19T16:25:36;15.35;;;13.05;;
24090;SDS011;12272;52.426;17.100;2022-08-19T16:30:40;20.90;;;13.93;;
24090;SDS011;12272;52.426;17.100;2022-08-19T16:35:51;14.85;;;12.18;;
24090;SDS011;12272;52.426;17.100;2022-08-19T16:41:08;16.23;;;13.38;;
24090;SDS011;12272;52.426;17.100;2022-08-19T16:46:10;13.85;;;12.23;;
24090;SDS011;12272;52.426;17.100;2022-08-19T16:51:18;15.07;;;12.77;;
24090;SDS011;12272;52.426;17.100;2022-08-19T16:56:23;17.13;;;14.00;;
24090;SDS011;12272;52.426;17.100;2022-08-19T17:01:26;13.73;;;12.32;;
24090;SDS011;12272;52.426;17.100;2022-08-19T17:06:29;18.65;;;14.02;;
24090;SDS011;12272;52.426;17.100;2022-08-19T17:11:32;15.48;;;13.57;;
24090;SDS011;12272;52.426;17.100;2022-08-19T17:16:35;20.00;;;13.60;;
24090;SDS011;12272;52.426;17.100;2022-08-19T17:21:38;17.73;;;14.18;;
24090;SDS011;12272;52.426;17.100;2022-08-19T17:26:41;22.08;;;16.42;;
24090;SDS011;12272;52.426;17.100;2022-08-19T17:31:44;20.02;;;16.83;;
24090;SDS011;12272;52.426;17.100;2022-08-19T17:36:47;19.58;;;14.55;;
24090;SDS011;12272;52.426;17.100;2022-08-19T17:41:49;16.13;;;14.35;;
24090;SDS011;12272;52.426;17.100;2022-08-19T17:46:52;17.27;;;13.70;;
24090;SDS011;12272;52.426;17.100;2022-08-19T17:51:54;25.15;;;17.00;;
24090;SDS011;12272;52.426;17.100;2022-08-19T17:56:58;14.70;;;13.18;;
24090;SDS011;12272;52.426;17.100;2022-08-19T18:02:01;21.90;;;17.45;;
24090;SDS011;12272;52.426;17.100;2022-08-19T18:07:05;15.15;;;13.02;;
24090;SDS011;12272;52.426;17.100;2022-08-19T18:12:08;16.60;;;13.93;;
24090;SDS011;12272;52.426;17.100;2022-08-19T18:17:13;15.88;;;13.85;;
24090;SDS011;12272;52.426;17.100;2022-08-19T18:22:33;17.65;;;14.40;;
24090;SDS011;12272;52.426;17.100;2022-08-19T18:27:39;43.25;;;15.27;;
24090;SDS011;12272;52.426;17.100;2022-08-19T18:32:43;26.23;;;19.25;;
24090;SDS011;12272;52.426;17.100;2022-08-19T18:37:47;25.27;;;17.85;;
24090;SDS011;12272;52.426;17.100;2022-08-19T18:42:50;23.75;;;17.67;;
24090;SDS011;12272;52.426;17.100;2022-08-19T18:48:11;23.25;;;17.75;;
24090;SDS011;12272;52.426;17.100;2022-08-19T18:53:35;24.35;;;17.67;;
24090;SDS011;12272;52.426;17.100;2022-08-19T18:58:41;22.83;;;18.15;;
24090;SDS011;12272;52.426;17.100;2022-08-19T19:03:45;23.10;;;18.42;;
24090;SDS011;12272;52.426;17.100;2022-08-19T19:08:50;22.42;;;18.00;;
24090;SDS011;12272;52.426;17.100;2022-08-19T19:13:54;19.40;;;17.15;;
24090;SDS011;12272;52.426;17.100;2022-08-19T19:18:56;20.50;;;17.42;;
24090;SDS011;12272;52.426;17.100;2022-08-19T19:23:59;19.55;;;16.95;;
24090;SDS011;12272;52.426;17.100;2022-08-19T19:29:02;21.40;;;17.20;;
24090;SDS011;12272;52.426;17.100;2022-08-19T19:34:05;19.58;;;15.88;;
24090;SDS011;12272;52.426;17.100;2022-08-19T19:39:28;18.17;;;15.55;;
24090;SDS011;12272;52.426;17.100;2022-08-19T19:44:48;18.08;;;15.60;;
24090;SDS011;12272;52.426;17.100;2022-08-19T19:49:52;19.13;;;15.05;;
24090;SDS011;12272;52.426;17.100;2022-08-19T19:55:16;19.55;;;16.23;;
24090;SDS011;12272;52.426;17.100;2022-08-19T20:00:19;18.80;;;15.77;;
24090;SDS011;12272;52.426;17.100;2022-08-19T20:05:22;20.80;;;15.90;;
24090;SDS011;12272;52.426;17.100;2022-08-19T20:10:26;18.20;;;15.95;;
24090;SDS011;12272;52.426;17.100;2022-08-19T20:15:29;18.40;;;15.32;;
24090;SDS011;12272;52.426;17.100;2022-08-19T20:20:33;18.80;;;15.27;;
24090;SDS011;12272;52.426;17.100;2022-08-19T20:25:36;17.88;;;14.65;;
24090;SDS011;12272;52.426;17.100;2022-08-19T20:30:40;18.33;;;15.18;;
24090;SDS011;12272;52.426;17.100;2022-08-19T20:35:47;21.35;;;17.45;;
24090;SDS011;12272;52.426;17.100;2022-08-19T20:40:50;18.13;;;15.60;;
24090;SDS011;12272;52.426;17.100;2022-08-19T20:45:53;25.98;;;20.85;;
24090;SDS011;12272;52.426;17.100;2022-08-19T20:50:56;24.83;;;17.10;;
24090;SDS011;12272;52.426;17.100;2022-08-19T20:55:59;16.92;;;14.93;;
24090;SDS011;12272;52.426;17.100;2022-08-19T21:01:04;17.13;;;15.07;;
24090;SDS011;12272;52.426;17.100;2022-08-19T21:06:09;21.00;;;17.05;;
24090;SDS011;12272;52.426;17.100;2022-08-19T21:11:14;17.77;;;15.88;;
24090;SDS011;12272;52.426;17.100;2022-08-19T21:16:23;18.65;;;15.85;;
24090;SDS011;12272;52.426;17.100;2022-08-19T21:21:26;19.75;;;16.20;;
24090;SDS011;12272;52.426;17.100;2022-08-19T21:26:29;17.63;;;15.68;;
24090;SDS011;12272;52.426;17.100;2022-08-19T21:31:32;17.33;;;15.45;;
24090;SDS011;12272;52.426;17.100;2022-08-19T21:36:34;20.33;;;14.88;;
24090;SDS011;12272;52.426;17.100;2022-08-19T21:41:37;17.67;;;15.45;;
24090;SDS011;12272;52.426;17.100;2022-08-19T21:46:44;24.75;;;21.42;;
24090;SDS011;12272;52.426;17.100;2022-08-19T21:51:55;22.55;;;17.27;;
24090;SDS011;12272;52.426;17.100;2022-08-19T21:57:06;18.38;;;15.52;;
24090;SDS011;12272;52.426;17.100;2022-08-19T22:02:12;19.30;;;15.90;;
24090;SDS011;12272;52.426;17.100;2022-08-19T22:07:21;18.98;;;16.48;;
24090;SDS011;12272;52.426;17.100;2022-08-19T22:12:25;18.02;;;15.70;;
24090;SDS011;12272;52.426;17.100;2022-08-19T22:17:30;19.40;;;14.95;;
24090;SDS011;12272;52.426;17.100;2022-08-19T22:22:34;17.52;;;15.63;;
24090;SDS011;12272;52.426;17.100;2022-08-19T22:27:37;18.30;;;15.80;;
24090;SDS011;12272;52.426;17.100;2022-08-19T22:32:44;16.55;;;14.82;;
24090;SDS011;12272;52.426;17.100;2022-08-19T22:37:57;17.60;;;15.73;;
24090;SDS011;12272;52.426;17.100;2022-08-19T22:43:02;20.17;;;16.35;;
24090;SDS011;12272;52.426;17.100;2022-08-19T22:48:12;30.15;;;25.80;;
24090;SDS011;12272;52.426;17.100;2022-08-19T22:53:15;22.08;;;18.95;;
24090;SDS011;12272;52.426;17.100;2022-08-19T22:58:18;19.92;;;17.90;;
24090;SDS011;12272;52.426;17.100;2022-08-19T23:03:29;18.85;;;16.60;;
24090;SDS011;12272;52.426;17.100;2022-08-19T23:08:31;21.25;;;18.50;;
24090;SDS011;12272;52.426;17.100;2022-08-19T23:13:34;21.77;;;18.30;;
24090;SDS011;12272;52.426;17.100;2022-08-19T23:18:36;19.10;;;17.10;;
24090;SDS011;12272;52.426;17.100;2022-08-19T23:23:39;19.58;;;17.45;;
24090;SDS011;12272;52.426;17.100;2022-08-19T23:28:42;19.10;;;17.05;;
24090;SDS011;12272;52.426;17.100;2022-08-19T23:34:03;20.60;;;17.50;;
24090;SDS011;12272;52.426;17.100;2022-08-19T23:39:06;19.20;;;17.20;;
24090;SDS011;12272;52.426;17.100;2022-08-19T23:44:09;19.73;;;17.63;;
24090;SDS011;12272;52.426;17.100;2022-08-19T23:49:15;19.23;;;17.20;;
24090;SDS011;12272;52.426;17.100;2022-08-19T23:54:18;19.42;;;17.42;;
24090;SDS011;12272;52.426;17.100;2022-08-19T23:59:20;20.35;;;18.15;;
